ETND

Diepholz Airport

Diepholz, Germany
METAR ETND 241320Z 32014G25KT 9999 SCT032CB SCT080 11/06 Q1030 RETS BLU+
Observed Flight Rules
Sep-24 @ 13:20 UTC (17 minutes ago) Visual Flight Rules
Wind Visibility Clouds
320° at 14 knots
 Gusting to 25 knots
10,000+ meters
  • Scattered at 3,200' AGL
  • Scattered at 8,000' AGL
Temperatures Readings
Current 11°C / 52°F
Dewpoint 6°C / 43°F
Humidity 72%
Altimeter 30.41" Hg
Pressure 1030 hPa
Elevation 43
METAR ETND 241320Z 32014G25KT 9999 SCT032CB SCT080 11/06 Q1030 RETS BLU+
Observed Flight Rules
Sep-24 @ 13:20 UTC
(17 minutes ago)
VFR
Wind Visibility
320° at 14 knots
 Gusting to 25 knots
10,000+ meters
Clouds
  • Scattered at 3,200' AGL
  • Scattered at 8,000' AGL
Temperature Dewpoint
11°C / 52°F 6°C / 43°F
Humidity Altimeter Pressure
72% 30.41" Hg 1030 hPa